createdAt,value
2018-05-01T00:02:18.443Z,8.80
2018-05-01T00:04:46.690Z,8.80
2018-05-01T00:07:15.808Z,8.80
2018-05-01T00:09:44.844Z,8.70
2018-05-01T00:12:13.012Z,8.70
2018-05-01T00:14:41.188Z,8.40
2018-05-01T00:17:09.394Z,8.60
2018-05-01T00:19:37.633Z,8.60
2018-05-01T00:22:05.802Z,8.60
2018-05-01T00:24:33.989Z,8.60
2018-05-01T00:27:02.167Z,8.60
2018-05-01T00:29:30.946Z,8.50
2018-05-01T00:31:59.255Z,8.50
2018-05-01T00:34:28.362Z,8.50
2018-05-01T00:36:56.556Z,8.50
2018-05-01T00:39:25.588Z,8.40
2018-05-01T00:41:53.827Z,8.40
2018-05-01T00:44:22.008Z,8.40
2018-05-01T00:46:50.266Z,8.40
2018-05-01T00:49:18.478Z,8.40
2018-05-01T00:51:46.723Z,8.40
2018-05-01T00:54:14.894Z,8.40
2018-05-01T00:56:43.830Z,8.40
2018-05-01T00:59:12.000Z,8.30
2018-05-01T01:01:40.379Z,8.30
2018-05-01T01:04:08.573Z,8.30
2018-05-01T01:06:37.446Z,8.30
2018-05-01T01:09:05.665Z,8.30
2018-05-01T01:11:33.895Z,8.20
2018-05-01T01:14:02.070Z,8.20
2018-05-01T01:16:30.266Z,8.20
2018-05-01T01:18:58.525Z,8.20
2018-05-01T01:21:26.798Z,8.20
2018-05-01T01:23:55.178Z,8.20
2018-05-01T01:26:23.377Z,8.20
2018-05-01T01:28:52.412Z,8.10
2018-05-01T01:31:20.621Z,8.20
2018-05-01T01:33:48.820Z,8.20
2018-05-01T01:36:16.249Z,8.20
2018-05-01T01:38:43.702Z,8.20
2018-05-01T01:41:11.133Z,8.20
2018-05-01T01:43:38.771Z,8.20
2018-05-01T01:46:06.268Z,8.10
2018-05-01T01:48:33.711Z,8.10
2018-05-01T01:51:01.144Z,8.10
2018-05-01T01:53:29.386Z,8.00
2018-05-01T01:55:56.836Z,8.00
2018-05-01T01:58:24.265Z,7.90
2018-05-01T02:00:51.730Z,7.90
2018-05-01T02:03:19.170Z,7.90
2018-05-01T02:05:46.591Z,7.80
2018-05-01T02:08:14.047Z,7.80
2018-05-01T02:10:41.471Z,7.80
2018-05-01T02:13:08.896Z,7.80
2018-05-01T02:15:36.546Z,7.80
2018-05-01T02:18:03.980Z,7.80
2018-05-01T02:20:31.403Z,7.80
2018-05-01T02:22:58.855Z,7.70
2018-05-01T02:25:26.287Z,7.70
2018-05-01T02:27:53.728Z,7.70
2018-05-01T02:30:21.169Z,7.70
2018-05-01T02:32:48.594Z,7.70
2018-05-01T02:35:16.748Z,7.70
2018-05-01T02:37:44.236Z,7.70
2018-05-01T02:40:11.684Z,7.70
2018-05-01T02:42:39.144Z,7.70
2018-05-01T02:45:06.599Z,7.60
2018-05-01T02:47:34.029Z,7.60
2018-05-01T02:50:01.925Z,7.60
2018-05-01T02:52:29.407Z,7.60
2018-05-01T02:54:56.921Z,7.60
2018-05-01T02:57:24.361Z,7.60
2018-05-01T02:59:51.935Z,7.60
2018-05-01T03:02:19.369Z,7.60
2018-05-01T03:04:46.803Z,7.60
2018-05-01T03:07:14.258Z,7.60
2018-05-01T03:09:41.696Z,7.60
2018-05-01T03:12:09.141Z,7.60
2018-05-01T03:14:36.595Z,7.50
2018-05-01T03:17:04.028Z,7.50
2018-05-01T03:19:31.480Z,7.50
2018-05-01T03:21:58.971Z,7.60
2018-05-01T03:24:26.410Z,7.50
2018-05-01T03:26:53.847Z,7.50
2018-05-01T03:29:21.304Z,7.50
2018-05-01T03:31:48.901Z,7.50
2018-05-01T03:34:16.329Z,7.50
2018-05-01T03:36:43.781Z,7.50
2018-05-01T03:39:11.252Z,7.50
2018-05-01T03:41:38.668Z,7.40
2018-05-01T03:44:06.112Z,7.50
2018-05-01T03:46:33.605Z,7.50
2018-05-01T03:49:00.997Z,7.40
2018-05-01T03:51:28.447Z,7.40
2018-05-01T03:53:55.885Z,7.40
2018-05-01T03:56:23.326Z,7.40
2018-05-01T03:58:51.560Z,7.40
2018-05-01T04:01:19.000Z,7.30
2018-05-01T04:03:46.430Z,7.30
2018-05-01T04:06:13.890Z,7.30
2018-05-01T04:08:41.313Z,7.30
2018-05-01T04:11:09.635Z,7.30
2018-05-01T04:13:37.088Z,7.20
2018-05-01T04:16:04.533Z,7.20
2018-05-01T04:18:32.020Z,7.20
2018-05-01T04:20:59.508Z,7.20
2018-05-01T04:23:26.958Z,7.20
2018-05-01T04:25:54.773Z,7.20
2018-05-01T04:28:22.230Z,7.20
2018-05-01T04:30:49.650Z,7.10
2018-05-01T04:33:17.075Z,7.10
2018-05-01T04:35:44.542Z,7.10
2018-05-01T04:38:11.981Z,7.10
2018-05-01T04:40:39.440Z,7.00
2018-05-01T04:43:06.885Z,7.00
2018-05-01T04:45:34.313Z,7.00
2018-05-01T04:48:02.505Z,7.00
2018-05-01T04:50:29.964Z,6.90
2018-05-01T04:52:57.419Z,6.90
2018-05-01T04:55:24.871Z,6.90
2018-05-01T04:57:52.361Z,6.90
2018-05-01T05:00:19.797Z,6.90
2018-05-01T05:02:47.245Z,6.80
2018-05-01T05:05:14.737Z,6.80
2018-05-01T05:07:42.190Z,6.80
2018-05-01T05:10:09.606Z,6.80
2018-05-01T05:12:37.083Z,6.80
2018-05-01T05:15:04.516Z,6.80
2018-05-01T05:17:31.969Z,6.80
2018-05-01T05:19:59.435Z,6.80
2018-05-01T05:22:26.863Z,6.80
2018-05-01T05:24:54.288Z,6.80
2018-05-01T05:27:21.728Z,6.80
2018-05-01T05:29:49.209Z,6.80
2018-05-01T05:32:16.630Z,6.80
2018-05-01T05:34:44.090Z,6.80
2018-05-01T05:37:11.579Z,6.80
2018-05-01T05:39:39.007Z,6.80
2018-05-01T05:42:06.464Z,6.90
2018-05-01T05:44:33.893Z,6.90
2018-05-01T05:47:02.843Z,6.90
2018-05-01T05:49:30.333Z,7.00
2018-05-01T05:51:57.867Z,7.00
2018-05-01T05:54:25.324Z,7.00
2018-05-01T05:56:52.775Z,7.10
2018-05-01T05:59:20.225Z,7.20
2018-05-01T06:01:47.782Z,7.20
2018-05-01T06:04:15.230Z,7.30
2018-05-01T06:06:42.669Z,7.30
2018-05-01T06:09:10.133Z,7.40
2018-05-01T06:11:37.654Z,7.50
2018-05-01T06:14:05.074Z,7.60
2018-05-01T06:16:32.494Z,7.60
2018-05-01T06:18:59.941Z,7.70
2018-05-01T06:21:27.370Z,7.80
2018-05-01T06:23:54.831Z,7.90
2018-05-01T06:26:22.289Z,8.00
2018-05-01T06:28:49.716Z,8.00
2018-05-01T06:31:17.180Z,8.10
2018-05-01T06:33:44.656Z,8.20
2018-05-01T06:36:12.100Z,8.40
2018-05-01T06:38:40.245Z,8.50
2018-05-01T06:41:07.741Z,8.50
2018-05-01T06:43:35.163Z,8.70
2018-05-01T06:46:02.861Z,8.90
2018-05-01T06:48:30.320Z,9.20
2018-05-01T06:50:57.754Z,9.50
2018-05-01T06:53:25.182Z,9.80
2018-05-01T06:55:53.452Z,10.00
2018-05-01T06:58:20.890Z,10.10
2018-05-01T07:00:50.155Z,10.20
2018-05-01T07:03:20.739Z,10.20
2018-05-01T07:05:48.679Z,10.20
2018-05-01T07:08:16.313Z,10.20
2018-05-01T07:10:44.389Z,10.30
2018-05-01T07:13:12.720Z,10.30
2018-05-01T07:15:40.179Z,10.40
2018-05-01T07:18:07.639Z,10.40
2018-05-01T07:20:35.076Z,10.50
2018-05-01T07:23:02.506Z,10.50
2018-05-01T07:25:29.958Z,10.60
2018-05-01T07:27:57.396Z,10.70
2018-05-01T07:30:24.821Z,10.70
2018-05-01T07:32:52.266Z,10.80
2018-05-01T07:35:19.693Z,10.80
2018-05-01T07:37:47.138Z,10.90
2018-05-01T07:40:14.581Z,10.90
2018-05-01T07:42:42.007Z,11.10
2018-05-01T07:45:09.491Z,11.30
2018-05-01T07:47:38.023Z,11.40
2018-05-01T07:50:05.694Z,11.50
2018-05-01T07:52:33.121Z,11.60
2018-05-01T07:55:00.604Z,11.70
2018-05-01T07:57:29.758Z,11.70
2018-05-01T07:59:57.196Z,11.80
2018-05-01T08:02:24.668Z,11.70
2018-05-01T08:04:52.123Z,12.00
2018-05-01T08:07:19.562Z,12.10
2018-05-01T08:09:47.902Z,12.20
2018-05-01T08:12:15.341Z,12.30
2018-05-01T08:14:44.082Z,12.40
2018-05-01T08:17:12.204Z,12.50
2018-05-01T08:19:40.013Z,12.50
2018-05-01T08:22:07.495Z,12.60
2018-05-01T08:24:34.959Z,12.70
2018-05-01T08:27:02.418Z,12.70
2018-05-01T08:29:29.856Z,12.80
2018-05-01T08:31:57.359Z,12.80
2018-05-01T08:34:25.082Z,12.80
2018-05-01T08:36:52.526Z,12.90
2018-05-01T08:39:19.991Z,13.00
2018-05-01T08:41:47.427Z,13.20
2018-05-01T08:44:14.889Z,13.30
2018-05-01T08:46:43.121Z,13.40
2018-05-01T08:49:10.560Z,13.40
2018-05-01T08:51:38.389Z,13.50
2018-05-01T08:54:05.852Z,13.50
2018-05-01T08:56:33.338Z,13.50
2018-05-01T08:59:00.797Z,13.50
2018-05-01T09:01:28.248Z,13.60
2018-05-01T09:03:55.887Z,13.60
2018-05-01T09:06:23.349Z,13.60
2018-05-01T09:08:50.849Z,13.70
2018-05-01T09:11:18.289Z,13.80
2018-05-01T09:13:45.747Z,13.90
2018-05-01T09:16:13.753Z,14.00
2018-05-01T09:18:41.192Z,14.10
2018-05-01T09:21:09.454Z,14.30
2018-05-01T09:23:36.922Z,14.40
2018-05-01T09:26:04.367Z,14.60
2018-05-01T09:28:31.802Z,14.70
2018-05-01T09:30:59.892Z,14.70
2018-05-01T09:33:27.320Z,14.80
2018-05-01T09:35:54.750Z,14.90
2018-05-01T09:38:22.208Z,15.00
2018-05-01T09:40:49.645Z,15.00
2018-05-01T09:43:17.111Z,15.10
2018-05-01T09:45:44.552Z,15.10
2018-05-01T09:48:11.985Z,15.20
2018-05-01T09:50:39.420Z,15.20
2018-05-01T09:53:07.621Z,15.30
2018-05-01T09:55:36.888Z,15.30
2018-05-01T09:58:05.105Z,15.40
2018-05-01T10:00:33.300Z,15.50
2018-05-01T10:03:01.575Z,15.50
2018-05-01T10:05:29.766Z,15.50
2018-05-01T10:07:58.893Z,15.60
2018-05-01T10:10:27.672Z,15.70
2018-05-01T10:12:56.261Z,15.80
2018-05-01T10:15:24.872Z,15.90
2018-05-01T10:17:53.073Z,16.00
2018-05-01T10:20:21.272Z,16.00
2018-05-01T10:22:50.256Z,16.10
2018-05-01T10:25:18.472Z,16.20
2018-05-01T10:27:46.653Z,16.30
2018-05-01T10:30:14.882Z,16.30
2018-05-01T10:32:43.885Z,16.40
2018-05-01T10:35:12.830Z,16.30
2018-05-01T10:37:41.030Z,16.40
2018-05-01T10:40:09.202Z,16.60
2018-05-01T10:42:37.376Z,16.80
2018-05-01T10:45:05.584Z,17.10
2018-05-01T10:47:33.799Z,17.30
2018-05-01T10:50:01.999Z,17.60
2018-05-01T10:52:30.223Z,17.90
2018-05-01T10:54:58.445Z,18.10
2018-05-01T10:57:26.629Z,18.10
2018-05-01T10:59:54.850Z,18.10
2018-05-01T11:02:23.057Z,18.10
2018-05-01T11:04:51.258Z,18.10
2018-05-01T11:07:19.456Z,18.00
2018-05-01T11:09:47.653Z,17.90
2018-05-01T11:12:15.857Z,17.70
2018-05-01T11:14:44.069Z,17.50
2018-05-01T11:17:12.251Z,17.30
2018-05-01T11:19:41.199Z,17.10
2018-05-01T11:22:09.414Z,17.00
2018-05-01T11:24:37.640Z,17.00
2018-05-01T11:27:05.843Z,16.80
2018-05-01T11:29:34.094Z,17.00
2018-05-01T11:32:03.362Z,17.00
2018-05-01T11:34:31.547Z,17.00
2018-05-01T11:37:00.113Z,17.10
2018-05-01T11:39:28.303Z,17.10
2018-05-01T11:41:56.502Z,17.00
2018-05-01T11:44:24.704Z,17.00
2018-05-01T11:46:52.917Z,16.90
2018-05-01T11:49:21.101Z,16.90
2018-05-01T11:51:49.321Z,16.90
2018-05-01T11:54:17.498Z,17.00
2018-05-01T11:56:45.686Z,17.20
2018-05-01T11:59:13.893Z,17.50
2018-05-01T12:01:42.074Z,17.80
2018-05-01T12:04:10.281Z,18.10
2018-05-01T12:06:38.484Z,18.40
2018-05-01T12:09:06.675Z,18.50
2018-05-01T12:11:35.660Z,18.70
2018-05-01T12:14:03.908Z,18.90
2018-05-01T12:16:32.145Z,19.00
2018-05-01T12:19:00.368Z,19.20
2018-05-01T12:21:28.579Z,19.50
2018-05-01T12:23:57.540Z,19.90
2018-05-01T12:26:25.735Z,20.20
2018-05-01T12:28:53.949Z,20.30
2018-05-01T12:31:22.136Z,20.20
2018-05-01T12:33:50.327Z,20.20
2018-05-01T12:36:18.521Z,20.40
2018-05-01T12:38:47.508Z,20.60
2018-05-01T12:41:16.632Z,21.00
2018-05-01T12:43:44.851Z,21.30
2018-05-01T12:46:13.056Z,21.50
2018-05-01T12:48:41.298Z,21.70
2018-05-01T12:51:09.492Z,21.50
2018-05-01T12:53:37.670Z,21.20
2018-05-01T12:56:06.097Z,21.00
2018-05-01T12:58:34.339Z,20.90
2018-05-01T13:01:02.524Z,20.90
2018-05-01T13:03:30.704Z,20.80
2018-05-01T13:05:59.682Z,20.60
2018-05-01T13:08:27.867Z,20.40
2018-05-01T13:10:56.066Z,20.30
2018-05-01T13:13:24.344Z,20.50
2018-05-01T13:15:52.534Z,20.50
2018-05-01T13:18:20.742Z,20.60
2018-05-01T13:20:48.939Z,20.80
2018-05-01T13:23:17.148Z,20.80
2018-05-01T13:25:45.376Z,20.50
2018-05-01T13:28:13.595Z,20.40
2018-05-01T13:30:41.774Z,20.40
2018-05-01T13:33:10.181Z,20.50
2018-05-01T13:35:38.397Z,20.70
2018-05-01T13:38:06.613Z,20.90
2018-05-01T13:40:34.807Z,21.20
2018-05-01T13:43:02.998Z,21.50
2018-05-01T13:45:31.174Z,21.60
2018-05-01T13:47:59.423Z,21.70
2018-05-01T13:50:27.785Z,21.60
2018-05-01T13:52:55.912Z,21.50
2018-05-01T13:55:24.108Z,21.50
2018-05-01T13:57:52.530Z,21.70
2018-05-01T14:00:20.709Z,21.80
2018-05-01T14:02:48.985Z,22.00
2018-05-01T14:05:17.229Z,22.40
2018-05-01T14:07:45.433Z,23.10
2018-05-01T14:10:13.633Z,23.80
2018-05-01T14:12:41.853Z,24.80
2018-05-01T14:15:10.038Z,25.80
2018-05-01T14:17:38.253Z,26.80
2018-05-01T14:20:06.453Z,27.80
2018-05-01T14:22:34.627Z,28.50
2018-05-01T14:25:02.809Z,29.20
2018-05-01T14:27:31.037Z,29.70
2018-05-01T14:29:59.207Z,30.20
2018-05-01T14:32:27.382Z,30.60
2018-05-01T14:34:55.598Z,30.50
2018-05-01T14:37:23.792Z,30.50
2018-05-01T14:39:51.981Z,30.50
2018-05-01T14:42:20.228Z,30.60
2018-05-01T14:44:48.486Z,30.90
2018-05-01T14:47:16.670Z,31.40
2018-05-01T14:49:44.861Z,32.10
2018-05-01T14:52:13.810Z,32.90
2018-05-01T14:54:41.995Z,33.30
2018-05-01T14:57:11.070Z,33.20
2018-05-01T14:59:39.421Z,33.50
2018-05-01T15:02:07.602Z,33.70
2018-05-01T15:04:35.834Z,33.70
2018-05-01T15:07:04.005Z,32.20
2018-05-01T15:09:32.184Z,30.80
2018-05-01T15:12:00.377Z,29.70
2018-05-01T15:14:28.559Z,29.50
2018-05-01T15:16:56.925Z,28.70
2018-05-01T15:19:26.242Z,27.80
2018-05-01T15:21:55.181Z,26.90
2018-05-01T15:24:23.388Z,26.20
2018-05-01T15:26:52.361Z,25.90
2018-05-01T15:29:20.543Z,25.70
2018-05-01T15:31:48.726Z,25.40
2018-05-01T15:34:16.956Z,25.50
2018-05-01T15:36:45.133Z,26.60
2018-05-01T15:39:13.345Z,27.50
2018-05-01T15:41:41.541Z,28.20
2018-05-01T15:44:09.861Z,27.80
2018-05-01T15:46:38.035Z,27.20
2018-05-01T15:49:06.232Z,26.60
2018-05-01T15:51:34.509Z,25.90
2018-05-01T15:54:03.551Z,25.40
2018-05-01T15:56:31.795Z,24.90
2018-05-01T15:58:59.982Z,24.50
2018-05-01T16:01:28.184Z,24.40
2018-05-01T16:03:57.401Z,24.10
2018-05-01T16:06:25.582Z,23.50
2018-05-01T16:08:53.856Z,22.90
2018-05-01T16:11:22.068Z,22.60
2018-05-01T16:13:50.358Z,22.30
2018-05-01T16:16:18.507Z,22.10
2018-05-01T16:18:46.706Z,22.00
2018-05-01T16:21:15.239Z,21.90
2018-05-01T16:23:43.448Z,21.90
2018-05-01T16:26:11.636Z,22.00
2018-05-01T16:28:40.609Z,22.40
2018-05-01T16:31:08.856Z,23.00
2018-05-01T16:33:37.032Z,23.50
2018-05-01T16:36:05.428Z,24.00
2018-05-01T16:38:33.613Z,24.50
2018-05-01T16:41:02.394Z,24.60
2018-05-01T16:43:30.600Z,24.90
2018-05-01T16:45:59.564Z,24.70
2018-05-01T16:48:28.603Z,24.00
2018-05-01T16:50:57.580Z,23.20
2018-05-01T16:53:26.877Z,22.60
2018-05-01T16:55:55.983Z,22.10
2018-05-01T16:58:24.178Z,21.70
2018-05-01T17:00:52.441Z,21.30
2018-05-01T17:03:20.617Z,21.10
2018-05-01T17:05:48.855Z,21.00
2018-05-01T17:08:17.040Z,20.80
2018-05-01T17:13:20.161Z,20.40
2018-05-01T17:15:48.355Z,20.30
2018-05-01T17:18:16.585Z,20.30
2018-05-01T17:20:44.801Z,20.40
2018-05-01T17:23:13.057Z,20.40
2018-05-01T17:25:41.243Z,20.50
2018-05-01T17:28:09.518Z,20.50
2018-05-01T17:30:37.753Z,20.50
2018-05-01T17:33:05.926Z,20.30
2018-05-01T17:35:34.118Z,20.50
2018-05-01T17:38:02.364Z,20.50
2018-05-01T17:40:30.615Z,20.60
2018-05-01T17:42:58.830Z,21.00
2018-05-01T17:45:27.778Z,21.40
2018-05-01T17:47:56.698Z,21.50
2018-05-01T17:50:26.406Z,21.50
2018-05-01T17:52:56.739Z,21.50
2018-05-01T17:55:25.827Z,21.30
2018-05-01T17:57:54.243Z,21.10
2018-05-01T18:00:22.454Z,20.90
2018-05-01T18:02:50.686Z,20.70
2018-05-01T18:05:18.885Z,20.50
2018-05-01T18:07:47.090Z,20.30
2018-05-01T18:10:15.273Z,20.10
2018-05-01T18:12:43.589Z,19.90
2018-05-01T18:15:11.702Z,19.60
2018-05-01T18:17:39.873Z,19.40
2018-05-01T18:20:08.868Z,19.10
2018-05-01T18:22:37.046Z,18.90
2018-05-01T18:25:05.272Z,18.70
2018-05-01T18:27:33.478Z,18.50
2018-05-01T18:30:01.679Z,18.40
2018-05-01T18:32:29.863Z,18.20
2018-05-01T18:34:58.148Z,18.10
2018-05-01T18:37:27.352Z,17.90
2018-05-01T18:39:55.565Z,17.80
2018-05-01T18:42:23.752Z,17.70
2018-05-01T18:44:51.983Z,17.60
2018-05-01T18:47:20.964Z,17.40
2018-05-01T18:49:49.191Z,17.20
2018-05-01T18:52:18.794Z,17.00
2018-05-01T18:54:47.048Z,16.80
2018-05-01T18:57:16.705Z,16.60
2018-05-01T18:59:46.496Z,16.40
2018-05-01T19:02:17.797Z,16.20
2018-05-01T19:04:46.076Z,16.00
2018-05-01T19:07:14.325Z,15.80
2018-05-01T19:09:42.645Z,15.60
2018-05-01T19:12:10.933Z,15.40
2018-05-01T19:14:39.154Z,15.30
2018-05-01T19:17:07.990Z,15.20
2018-05-01T19:19:36.677Z,15.20
2018-05-01T19:22:05.483Z,15.10
2018-05-01T19:24:33.994Z,15.10
2018-05-01T19:27:04.987Z,15.00
2018-05-01T19:29:33.729Z,15.00
2018-05-01T19:32:02.048Z,14.90
2018-05-01T19:34:31.306Z,14.90
2018-05-01T19:37:00.052Z,14.90
2018-05-01T19:39:28.390Z,14.90
2018-05-01T19:41:56.623Z,14.90
2018-05-01T19:44:25.594Z,14.90
2018-05-01T19:46:54.269Z,14.90
2018-05-01T19:49:23.062Z,15.00
2018-05-01T19:51:52.655Z,15.00
2018-05-01T19:54:21.283Z,15.00
2018-05-01T19:56:49.990Z,15.00
2018-05-01T19:59:18.233Z,15.00
2018-05-01T20:01:47.059Z,15.00
2018-05-01T20:04:17.180Z,15.00
2018-05-01T20:06:45.369Z,15.00
2018-05-01T20:09:14.693Z,15.00
2018-05-01T20:11:42.956Z,14.90
2018-05-01T20:14:11.195Z,14.90
2018-05-01T20:16:39.436Z,14.90
2018-05-01T20:19:07.657Z,14.90
2018-05-01T20:21:35.962Z,14.90
2018-05-01T20:24:04.260Z,14.90
2018-05-01T20:26:32.446Z,14.90
2018-05-01T20:29:00.648Z,14.90
2018-05-01T20:31:28.826Z,14.90
2018-05-01T20:33:57.065Z,14.80
2018-05-01T20:36:25.312Z,14.80
2018-05-01T20:38:53.511Z,14.80
2018-05-01T20:41:21.703Z,14.80
2018-05-01T20:43:50.753Z,14.80
2018-05-01T20:46:19.001Z,14.80
2018-05-01T20:48:47.215Z,14.80
2018-05-01T20:51:15.447Z,14.80
2018-05-01T20:53:43.623Z,14.80
2018-05-01T20:56:11.798Z,14.80
2018-05-01T20:58:40.047Z,14.90
2018-05-01T21:01:08.234Z,14.90
2018-05-01T21:03:36.420Z,14.90
2018-05-01T21:06:04.620Z,14.90
2018-05-01T21:08:32.800Z,14.90
2018-05-01T21:11:00.978Z,14.90
2018-05-01T21:13:29.210Z,14.80
2018-05-01T21:15:57.404Z,14.80
2018-05-01T21:18:25.600Z,14.80
2018-05-01T21:20:53.819Z,14.80
2018-05-01T21:23:22.031Z,14.80
2018-05-01T21:25:50.226Z,14.80
2018-05-01T21:28:20.006Z,14.70
2018-05-01T21:30:48.953Z,14.70
2018-05-01T21:33:17.209Z,14.70
2018-05-01T21:35:45.422Z,14.70
2018-05-01T21:38:13.661Z,14.70
2018-05-01T21:40:41.870Z,14.70
2018-05-01T21:43:10.065Z,14.70
2018-05-01T21:45:41.042Z,14.70
2018-05-01T21:48:09.219Z,14.70
2018-05-01T21:50:37.882Z,14.60
2018-05-01T21:53:06.102Z,14.70
2018-05-01T21:55:34.987Z,14.70
2018-05-01T21:58:03.200Z,14.60
2018-05-01T22:00:32.264Z,14.60
2018-05-01T22:03:00.453Z,14.60
2018-05-01T22:05:28.665Z,14.60
2018-05-01T22:07:56.833Z,14.50
2018-05-01T22:10:25.086Z,14.50
2018-05-01T22:12:53.283Z,14.50
2018-05-01T22:15:22.240Z,14.40
2018-05-01T22:17:50.420Z,14.40
2018-05-01T22:20:18.627Z,14.40
2018-05-01T22:22:47.521Z,14.40
2018-05-01T22:25:15.698Z,14.30
2018-05-01T22:27:43.932Z,14.30
2018-05-01T22:30:12.145Z,14.30
2018-05-01T22:32:41.043Z,14.30
2018-05-01T22:35:09.276Z,14.30
2018-05-01T22:37:37.466Z,14.30
2018-05-01T22:40:05.723Z,14.30
2018-05-01T22:42:34.107Z,14.20
2018-05-01T22:45:02.296Z,14.20
2018-05-01T22:47:30.496Z,14.30
2018-05-01T22:49:58.698Z,14.30
2018-05-01T22:52:26.877Z,14.20
2018-05-01T22:54:55.094Z,14.20
2018-05-01T22:57:23.342Z,14.20
2018-05-01T22:59:51.545Z,14.20
2018-05-01T23:02:20.498Z,14.20
2018-05-01T23:04:48.711Z,14.20
2018-05-01T23:07:16.904Z,14.10
2018-05-01T23:09:45.467Z,14.10
2018-05-01T23:12:14.495Z,14.20
2018-05-01T23:14:42.684Z,14.20
2018-05-01T23:17:10.866Z,14.20
2018-05-01T23:19:39.382Z,14.20
2018-05-01T23:22:07.625Z,14.20
2018-05-01T23:24:35.825Z,14.20
2018-05-01T23:27:04.096Z,14.20
2018-05-01T23:29:32.283Z,14.20
2018-05-01T23:32:00.523Z,14.20
2018-05-01T23:34:28.716Z,14.10
2018-05-01T23:36:56.896Z,14.10
2018-05-01T23:39:25.870Z,14.00
2018-05-01T23:41:54.074Z,14.00
2018-05-01T23:44:22.427Z,14.00
2018-05-01T23:46:50.595Z,13.90
2018-05-01T23:49:18.817Z,13.90
2018-05-01T23:51:47.759Z,13.90
2018-05-01T23:54:16.419Z,13.90
2018-05-01T23:56:44.777Z,13.90
2018-05-01T23:59:12.994Z,13.90
